createdAt,value
2018-06-28T00:00:11.534Z,17.07
2018-06-28T00:01:11.457Z,17.04
2018-06-28T00:02:11.441Z,16.86
2018-06-28T00:03:11.436Z,16.89
2018-06-28T00:04:11.427Z,16.83
2018-06-28T00:05:11.475Z,16.76
2018-06-28T00:06:11.401Z,16.82
2018-06-28T00:07:11.389Z,16.70
2018-06-28T00:08:11.380Z,16.66
2018-06-28T00:09:11.367Z,16.66
2018-06-28T00:10:11.423Z,16.53
2018-06-28T00:11:11.345Z,16.57
2018-06-28T00:12:11.336Z,16.48
2018-06-28T00:13:11.328Z,16.39
2018-06-28T00:14:11.316Z,16.42
2018-06-28T00:15:11.373Z,16.35
2018-06-28T00:16:11.319Z,16.31
2018-06-28T00:17:11.279Z,16.14
2018-06-28T00:18:11.277Z,16.11
2018-06-28T00:19:11.263Z,16.14
2018-06-28T00:20:11.318Z,16.12
2018-06-28T00:21:11.240Z,16.14
2018-06-28T00:22:11.229Z,16.14
2018-06-28T00:23:11.211Z,16.11
2018-06-28T00:24:11.199Z,16.08
2018-06-28T00:25:11.256Z,16.07
2018-06-28T00:26:11.182Z,16.04
2018-06-28T00:27:11.160Z,16.00
2018-06-28T00:28:11.162Z,15.94
2018-06-28T00:29:11.146Z,15.94
2018-06-28T00:30:11.204Z,15.87
2018-06-28T00:31:11.127Z,15.82
2018-06-28T00:32:11.119Z,15.82
2018-06-28T00:33:11.105Z,15.80
2018-06-28T00:34:11.107Z,15.92
2018-06-28T00:35:11.152Z,15.84
2018-06-28T00:36:11.076Z,15.80
2018-06-28T00:37:11.064Z,15.82
2018-06-28T00:38:11.052Z,15.86
2018-06-28T00:39:11.044Z,15.90
2018-06-28T00:40:11.099Z,16.00
2018-06-28T00:41:11.021Z,15.89
2018-06-28T00:42:11.011Z,15.93
2018-06-28T00:43:11.005Z,15.89
2018-06-28T00:44:10.991Z,15.94
2018-06-28T00:45:11.047Z,15.82
2018-06-28T00:46:10.968Z,15.82
2018-06-28T00:47:10.954Z,15.78
2018-06-28T00:48:10.943Z,15.83
2018-06-28T00:49:10.933Z,15.69
2018-06-28T00:50:10.992Z,15.74
2018-06-28T00:51:10.913Z,15.71
2018-06-28T00:52:10.894Z,15.67
2018-06-28T00:53:10.890Z,15.62
2018-06-28T00:54:10.880Z,15.62
2018-06-28T00:55:10.940Z,15.60
2018-06-28T00:56:10.862Z,15.62
2018-06-28T00:57:10.850Z,15.59
2018-06-28T00:58:10.837Z,15.60
2018-06-28T00:59:10.825Z,15.59
2018-06-28T01:00:10.891Z,15.50
2018-06-28T01:01:10.808Z,15.41
2018-06-28T01:02:10.792Z,15.47
2018-06-28T01:03:10.784Z,15.47
2018-06-28T01:04:10.769Z,15.39
2018-06-28T01:05:10.831Z,15.50
2018-06-28T01:06:10.752Z,15.60
2018-06-28T01:07:10.743Z,15.64
2018-06-28T01:08:10.724Z,15.60
2018-06-28T01:09:10.712Z,15.69
2018-06-28T01:10:10.772Z,15.67
2018-06-28T01:11:10.698Z,15.68
2018-06-28T01:12:10.695Z,15.71
2018-06-28T01:13:10.673Z,15.64
2018-06-28T01:14:10.657Z,15.64
2018-06-28T01:15:10.711Z,15.60
2018-06-28T01:16:10.641Z,15.72
2018-06-28T01:17:10.627Z,15.78
2018-06-28T01:18:10.619Z,15.68
2018-06-28T01:19:10.604Z,15.64
2018-06-28T01:20:10.659Z,15.59
2018-06-28T01:21:10.581Z,15.47
2018-06-28T01:22:10.567Z,15.46
2018-06-28T01:23:10.564Z,15.43
2018-06-28T01:24:10.554Z,15.39
2018-06-28T01:25:10.613Z,15.32
2018-06-28T01:26:10.525Z,15.29
2018-06-28T01:27:10.516Z,15.20
2018-06-28T01:28:10.507Z,15.17
2018-06-28T01:29:10.503Z,15.06
2018-06-28T01:30:10.561Z,15.13
2018-06-28T01:31:10.483Z,15.03
2018-06-28T01:32:10.464Z,15.02
2018-06-28T01:33:10.457Z,14.96
2018-06-28T01:34:10.450Z,15.02
2018-06-28T01:35:10.495Z,14.99
2018-06-28T01:36:10.425Z,14.99
2018-06-28T01:37:10.409Z,15.09
2018-06-28T01:38:10.400Z,15.03
2018-06-28T01:39:10.384Z,14.89
2018-06-28T01:40:10.462Z,14.88
2018-06-28T01:41:10.368Z,14.86
2018-06-28T01:42:10.365Z,14.96
2018-06-28T01:43:10.347Z,14.95
2018-06-28T01:44:10.334Z,14.84
2018-06-28T01:45:10.324Z,14.70
2018-06-28T01:46:10.391Z,14.65
2018-06-28T01:47:10.306Z,14.68
2018-06-28T01:48:10.301Z,14.64
2018-06-28T01:49:10.280Z,14.61
2018-06-28T01:50:10.269Z,14.62
2018-06-28T01:51:10.335Z,14.46
2018-06-28T01:52:10.252Z,14.46
2018-06-28T01:53:10.239Z,14.50
2018-06-28T01:54:10.219Z,14.50
2018-06-28T01:55:10.218Z,14.50
2018-06-28T01:56:10.275Z,14.50
2018-06-28T01:57:10.192Z,14.51
2018-06-28T01:58:10.184Z,14.50
2018-06-28T01:59:10.171Z,14.52
2018-06-28T02:00:10.153Z,14.46
2018-06-28T02:01:10.214Z,14.46
2018-06-28T02:02:10.135Z,14.45
2018-06-28T02:03:10.120Z,14.54
2018-06-28T02:04:10.120Z,14.39
2018-06-28T02:05:10.103Z,14.43
2018-06-28T02:06:10.163Z,14.42
2018-06-28T02:07:10.079Z,14.45
2018-06-28T02:08:10.066Z,14.39
2018-06-28T02:09:10.055Z,14.36
2018-06-28T02:10:10.063Z,14.45
2018-06-28T02:11:10.150Z,14.46
2018-06-28T02:12:10.023Z,14.37
2018-06-28T02:13:10.011Z,14.39
2018-06-28T02:14:10.005Z,14.33
2018-06-28T02:15:09.993Z,14.33
2018-06-28T02:16:10.039Z,14.25
2018-06-28T02:17:09.968Z,14.18
2018-06-28T02:18:09.956Z,14.24
2018-06-28T02:19:09.946Z,14.15
2018-06-28T02:20:09.942Z,14.15
2018-06-28T02:21:09.996Z,14.18
2018-06-28T02:22:09.911Z,14.22
2018-06-28T02:23:09.900Z,14.29
2018-06-28T02:24:09.891Z,14.21
2018-06-28T02:25:09.889Z,14.20
2018-06-28T02:26:09.944Z,14.15
2018-06-28T02:27:09.865Z,14.21
2018-06-28T02:28:09.841Z,14.21
2018-06-28T02:29:09.833Z,14.12
2018-06-28T02:30:09.843Z,14.12
2018-06-28T02:31:09.893Z,14.02
2018-06-28T02:32:09.816Z,14.04
2018-06-28T02:33:09.803Z,13.92
2018-06-28T02:34:09.775Z,13.91
2018-06-28T02:35:09.784Z,13.95
2018-06-28T02:36:09.827Z,13.92
2018-06-28T02:37:09.746Z,13.97
2018-06-28T02:38:09.738Z,14.03
2018-06-28T02:39:09.728Z,14.06
2018-06-28T02:40:09.711Z,14.14
2018-06-28T02:41:09.767Z,14.07
2018-06-28T02:42:09.685Z,14.04
2018-06-28T02:43:09.673Z,13.92
2018-06-28T02:44:09.671Z,13.84
2018-06-28T02:45:09.656Z,13.87
2018-06-28T02:46:09.705Z,13.70
2018-06-28T02:47:09.642Z,13.64
2018-06-28T02:48:09.621Z,13.66
2018-06-28T02:49:09.612Z,13.66
2018-06-28T02:50:09.605Z,13.69
2018-06-28T02:51:09.653Z,13.70
2018-06-28T02:52:09.580Z,13.70
2018-06-28T02:53:09.568Z,13.81
2018-06-28T02:54:09.553Z,13.82
2018-06-28T02:55:09.539Z,13.89
2018-06-28T02:56:09.599Z,13.87
2018-06-28T02:57:09.517Z,13.89
2018-06-28T02:58:09.511Z,13.95
2018-06-28T02:59:09.553Z,13.92
2018-06-28T03:00:09.487Z,13.91
2018-06-28T03:01:09.547Z,13.91
2018-06-28T03:02:09.463Z,13.88
2018-06-28T03:03:09.455Z,13.92
2018-06-28T03:04:09.442Z,13.78
2018-06-28T03:05:09.433Z,13.91
2018-06-28T03:06:09.507Z,13.91
2018-06-28T03:07:09.410Z,13.96
2018-06-28T03:08:09.397Z,13.92
2018-06-28T03:09:09.387Z,13.91
2018-06-28T03:10:09.377Z,13.91
2018-06-28T03:11:09.443Z,13.78
2018-06-28T03:12:09.362Z,13.71
2018-06-28T03:13:09.346Z,13.70
2018-06-28T03:14:09.326Z,13.79
2018-06-28T03:15:09.325Z,13.77
2018-06-28T03:16:09.379Z,13.66
2018-06-28T03:17:09.299Z,13.60
2018-06-28T03:18:09.292Z,13.67
2018-06-28T03:19:09.285Z,13.62
2018-06-28T03:20:09.263Z,13.67
2018-06-28T03:21:09.397Z,13.63
2018-06-28T03:22:09.241Z,13.67
2018-06-28T03:23:09.245Z,13.63
2018-06-28T03:24:09.239Z,13.64
2018-06-28T03:25:09.218Z,13.70
2018-06-28T03:26:09.199Z,13.67
2018-06-28T03:27:09.248Z,13.77
2018-06-28T03:28:09.177Z,13.73
2018-06-28T03:29:09.166Z,13.77
2018-06-28T03:30:09.167Z,13.79
2018-06-28T03:31:09.179Z,13.79
2018-06-28T03:32:09.210Z,13.73
2018-06-28T03:33:09.119Z,13.75
2018-06-28T03:34:09.113Z,13.81
2018-06-28T03:35:09.103Z,13.82
2018-06-28T03:36:09.091Z,13.87
2018-06-28T03:37:09.154Z,13.89
2018-06-28T03:38:09.065Z,13.84
2018-06-28T03:39:09.055Z,13.85
2018-06-28T03:40:09.053Z,13.85
2018-06-28T03:41:09.037Z,13.82
2018-06-28T03:42:09.090Z,13.77
2018-06-28T03:43:09.008Z,13.70
2018-06-28T03:44:09.001Z,13.67
2018-06-28T03:45:08.986Z,13.71
2018-06-28T03:46:08.988Z,13.70
2018-06-28T03:47:09.039Z,13.66
2018-06-28T03:48:08.957Z,13.66
2018-06-28T03:49:08.948Z,13.66
2018-06-28T03:50:08.968Z,13.69
2018-06-28T03:51:08.920Z,13.66
2018-06-28T03:52:08.993Z,13.69
2018-06-28T03:53:08.900Z,13.70
2018-06-28T03:54:08.890Z,13.70
2018-06-28T03:55:08.875Z,13.73
2018-06-28T03:56:08.856Z,13.78
2018-06-28T03:57:08.920Z,13.82
2018-06-28T03:58:08.846Z,13.70
2018-06-28T03:59:08.838Z,13.69
2018-06-28T04:00:08.819Z,13.67
2018-06-28T04:01:08.829Z,13.69
2018-06-28T04:02:08.875Z,13.71
2018-06-28T04:03:08.794Z,13.67
2018-06-28T04:04:08.792Z,13.67
2018-06-28T04:05:08.766Z,13.67
2018-06-28T04:06:08.754Z,13.57
2018-06-28T04:07:08.816Z,13.59
2018-06-28T04:08:08.738Z,13.63
2018-06-28T04:09:08.725Z,13.66
2018-06-28T04:10:08.715Z,13.60
2018-06-28T04:11:08.703Z,13.63
2018-06-28T04:12:08.757Z,13.67
2018-06-28T04:13:08.682Z,13.78
2018-06-28T04:14:08.674Z,13.66
2018-06-28T04:15:08.656Z,13.77
2018-06-28T04:16:08.645Z,13.85
2018-06-28T04:17:08.701Z,13.89
2018-06-28T04:18:08.621Z,13.87
2018-06-28T04:19:08.600Z,13.91
2018-06-28T04:20:08.608Z,13.85
2018-06-28T04:21:08.595Z,13.88
2018-06-28T04:22:08.643Z,13.82
2018-06-28T04:23:08.568Z,13.87
2018-06-28T04:24:08.559Z,13.85
2018-06-28T04:25:08.544Z,13.77
2018-06-28T04:26:08.537Z,13.84
2018-06-28T04:27:08.605Z,13.69
2018-06-28T04:28:08.514Z,13.75
2018-06-28T04:29:08.523Z,13.81
2018-06-28T04:30:08.492Z,13.84
2018-06-28T04:31:08.483Z,13.91
2018-06-28T04:32:08.546Z,13.91
2018-06-28T04:33:08.484Z,14.03
2018-06-28T04:34:08.453Z,14.10
2018-06-28T04:35:08.438Z,14.22
2018-06-28T04:36:08.428Z,14.40
2018-06-28T04:37:08.486Z,14.47
2018-06-28T04:38:08.405Z,14.58
2018-06-28T04:39:08.389Z,14.64
2018-06-28T04:40:08.383Z,14.69
2018-06-28T04:41:08.368Z,14.86
2018-06-28T04:42:08.430Z,14.88
2018-06-28T04:43:08.346Z,14.96
2018-06-28T04:44:08.340Z,15.03
2018-06-28T04:45:08.326Z,15.14
2018-06-28T04:46:08.315Z,15.29
2018-06-28T04:47:08.379Z,15.35
2018-06-28T04:48:08.290Z,15.46
2018-06-28T04:49:08.278Z,15.47
2018-06-28T04:50:08.274Z,15.34
2018-06-28T04:51:08.263Z,15.27
2018-06-28T04:52:08.314Z,15.25
2018-06-28T04:53:08.230Z,15.13
2018-06-28T04:54:08.233Z,15.19
2018-06-28T04:55:08.217Z,15.13
2018-06-28T04:56:08.207Z,15.23
2018-06-28T04:57:08.263Z,15.19
2018-06-28T04:58:08.184Z,15.13
2018-06-28T04:59:08.172Z,15.10
2018-06-28T05:00:08.167Z,15.20
2018-06-28T05:01:08.154Z,15.20
2018-06-28T05:02:08.215Z,15.20
2018-06-28T05:03:08.131Z,15.23
2018-06-28T05:04:08.117Z,15.25
2018-06-28T05:05:08.112Z,15.19
2018-06-28T05:06:08.096Z,15.20
2018-06-28T05:07:08.135Z,15.35
2018-06-28T05:08:08.142Z,15.41
2018-06-28T05:09:08.067Z,15.43
2018-06-28T05:10:08.055Z,15.56
2018-06-28T05:11:08.053Z,15.62
2018-06-28T05:12:08.035Z,15.71
2018-06-28T05:13:08.092Z,15.71
2018-06-28T05:14:08.006Z,15.82
2018-06-28T05:15:07.996Z,15.87
2018-06-28T05:16:07.986Z,16.02
2018-06-28T05:17:08.006Z,16.05
2018-06-28T05:18:08.048Z,16.04
2018-06-28T05:19:07.951Z,16.11
2018-06-28T05:20:07.953Z,16.09
2018-06-28T05:21:07.954Z,16.09
2018-06-28T05:22:07.928Z,16.12
2018-06-28T05:23:07.983Z,16.14
2018-06-28T05:24:07.903Z,16.14
2018-06-28T05:25:07.909Z,16.11
2018-06-28T05:26:07.881Z,16.24
2018-06-28T05:27:07.865Z,16.28
2018-06-28T05:28:07.939Z,16.42
2018-06-28T05:29:07.902Z,16.45
2018-06-28T05:30:07.845Z,16.57
2018-06-28T05:31:07.833Z,16.57
2018-06-28T05:32:07.813Z,16.56
2018-06-28T05:33:07.871Z,16.66
2018-06-28T05:34:07.789Z,16.71
2018-06-28T05:35:07.779Z,16.85
2018-06-28T05:36:07.773Z,16.96
2018-06-28T05:37:07.761Z,16.98
2018-06-28T05:38:07.820Z,17.08
2018-06-28T05:39:07.731Z,17.21
2018-06-28T05:40:07.740Z,17.14
2018-06-28T05:41:07.715Z,17.16
2018-06-28T05:42:07.704Z,17.15
2018-06-28T05:43:07.757Z,17.18
2018-06-28T05:44:07.699Z,17.18
2018-06-28T05:45:07.670Z,17.26
2018-06-28T05:46:07.666Z,17.26
2018-06-28T05:47:07.719Z,17.40
2018-06-28T05:48:07.713Z,17.46
2018-06-28T05:49:07.647Z,17.46
2018-06-28T05:50:07.615Z,17.55
2018-06-28T05:51:07.602Z,17.48
2018-06-28T05:52:07.596Z,17.64
2018-06-28T05:53:07.644Z,17.56
2018-06-28T05:54:07.588Z,17.62
2018-06-28T05:55:07.567Z,17.66
2018-06-28T05:56:07.553Z,17.68
2018-06-28T05:57:07.541Z,17.68
2018-06-28T05:58:07.607Z,17.72
2018-06-28T05:59:07.516Z,17.78
2018-06-28T06:00:07.508Z,17.81
2018-06-28T06:01:07.495Z,17.77
2018-06-28T06:02:07.491Z,17.77
2018-06-28T06:03:07.549Z,17.71
2018-06-28T06:04:07.460Z,17.72
2018-06-28T06:05:07.455Z,17.81
2018-06-28T06:06:07.436Z,17.78
2018-06-28T06:07:07.435Z,17.82
2018-06-28T06:08:07.488Z,17.77
2018-06-28T06:09:07.414Z,17.90
2018-06-28T06:10:07.401Z,17.86
2018-06-28T06:11:07.391Z,17.92
2018-06-28T06:12:07.385Z,17.92
2018-06-28T06:13:07.439Z,17.87
2018-06-28T06:14:07.363Z,18.03
2018-06-28T06:15:07.371Z,18.07
2018-06-28T06:16:07.340Z,18.23
2018-06-28T06:17:07.328Z,18.32
2018-06-28T06:18:07.385Z,18.37
2018-06-28T06:19:07.403Z,18.45
2018-06-28T06:20:07.428Z,18.54
2018-06-28T06:21:07.267Z,18.51
2018-06-28T06:22:07.264Z,18.52
2018-06-28T06:23:07.313Z,18.52
2018-06-28T06:24:07.249Z,18.54
2018-06-28T06:25:07.239Z,18.54
2018-06-28T06:26:07.221Z,18.58
2018-06-28T06:27:07.215Z,18.69
2018-06-28T06:28:07.298Z,18.66
2018-06-28T06:29:07.208Z,18.57
2018-06-28T06:30:07.205Z,18.73
2018-06-28T06:31:07.171Z,18.72
2018-06-28T06:32:07.155Z,18.78
2018-06-28T06:33:07.223Z,18.92
2018-06-28T06:34:07.139Z,19.16
2018-06-28T06:35:07.127Z,19.18
2018-06-28T06:36:07.106Z,19.32
2018-06-28T06:37:07.100Z,19.26
2018-06-28T06:38:07.154Z,19.33
2018-06-28T06:39:07.084Z,19.39
2018-06-28T06:40:07.069Z,19.37
2018-06-28T06:41:07.074Z,19.56
2018-06-28T06:42:07.068Z,19.61
2018-06-28T06:43:07.117Z,19.74
2018-06-28T06:44:07.029Z,19.65
2018-06-28T06:45:07.025Z,19.71
2018-06-28T06:46:07.010Z,19.68
2018-06-28T06:47:06.992Z,19.80
2018-06-28T06:48:08.966Z,19.71
2018-06-28T06:49:06.967Z,19.77
2018-06-28T06:50:06.957Z,19.71
2018-06-28T06:51:06.954Z,19.48
2018-06-28T06:52:06.993Z,19.76
2018-06-28T06:53:06.932Z,19.83
2018-06-28T06:54:06.982Z,19.80
2018-06-28T06:55:06.910Z,19.86
2018-06-28T06:56:06.901Z,19.80
2018-06-28T06:57:06.897Z,19.83
2018-06-28T06:58:06.879Z,19.98
2018-06-28T06:59:06.929Z,19.96
2018-06-28T07:00:06.838Z,19.99
2018-06-28T07:01:06.832Z,19.98
2018-06-28T07:02:06.852Z,20.01
2018-06-28T07:03:06.821Z,19.95
2018-06-28T07:04:06.876Z,20.11
2018-06-28T07:05:06.807Z,20.11
2018-06-28T07:06:06.786Z,20.31
2018-06-28T07:07:06.786Z,20.36
2018-06-28T07:08:06.761Z,20.42
2018-06-28T07:09:06.845Z,20.42
2018-06-28T07:10:06.781Z,20.55
2018-06-28T07:11:06.727Z,20.62
2018-06-28T07:12:06.723Z,20.58
2018-06-28T07:13:06.709Z,20.54
2018-06-28T07:14:06.762Z,20.55
2018-06-28T07:15:06.696Z,20.41
2018-06-28T07:16:06.812Z,20.47
2018-06-28T07:17:06.664Z,20.43
2018-06-28T07:18:06.653Z,20.57
2018-06-28T07:19:06.721Z,20.67
2018-06-28T07:20:06.631Z,20.61
2018-06-28T07:21:06.623Z,20.73
2018-06-28T07:22:06.616Z,20.73
2018-06-28T07:23:06.618Z,20.67
2018-06-28T07:24:06.666Z,20.72
2018-06-28T07:25:06.586Z,20.67
2018-06-28T07:26:06.587Z,20.67
2018-06-28T07:27:06.588Z,20.57
2018-06-28T07:28:06.547Z,20.54
2018-06-28T07:29:06.670Z,20.57
2018-06-28T07:30:06.516Z,20.66
2018-06-28T07:31:06.539Z,20.66
2018-06-28T07:32:06.508Z,20.77
2018-06-28T07:33:06.520Z,20.69
2018-06-28T07:34:06.558Z,20.82
2018-06-28T07:35:06.467Z,20.82
2018-06-28T07:36:06.457Z,20.84
2018-06-28T07:36:46.910Z,20.92
2018-06-28T07:37:46.868Z,20.82
2018-06-28T07:38:46.934Z,20.82
2018-06-28T07:39:46.846Z,20.73
2018-06-28T07:40:46.825Z,20.82
2018-06-28T07:41:46.833Z,20.88
2018-06-28T07:42:46.948Z,20.98
2018-06-28T07:43:47.061Z,21.14
2018-06-28T07:44:46.818Z,21.19
2018-06-28T07:45:46.888Z,21.24
2018-06-28T07:46:46.841Z,21.27
2018-06-28T07:47:46.751Z,21.34
2018-06-28T07:48:47.028Z,21.22
2018-06-28T07:49:46.739Z,21.12
2018-06-28T07:50:46.748Z,21.14
2018-06-28T07:51:46.720Z,21.14
2018-06-28T07:52:46.718Z,21.12
2018-06-28T07:53:46.800Z,21.21
2018-06-28T07:54:46.692Z,21.32
2018-06-28T07:55:46.670Z,21.38
2018-06-28T07:56:46.716Z,21.37
2018-06-28T07:57:46.648Z,21.35
2018-06-28T07:58:46.640Z,21.40
2018-06-28T07:59:46.692Z,21.34
2018-06-28T08:00:46.614Z,21.46
2018-06-28T08:01:46.605Z,21.43
2018-06-28T08:02:46.596Z,21.56
2018-06-28T08:03:46.577Z,21.61
2018-06-28T08:04:46.679Z,21.64
2018-06-28T08:05:46.559Z,21.58
2018-06-28T08:06:46.548Z,21.54
2018-06-28T08:07:46.536Z,21.72
2018-06-28T08:08:46.534Z,21.71
2018-06-28T08:09:46.654Z,21.88
2018-06-28T08:10:46.518Z,21.91
2018-06-28T08:11:46.503Z,21.91
2018-06-28T08:12:46.681Z,21.92
2018-06-28T08:13:46.469Z,21.90
2018-06-28T08:14:46.516Z,21.94
2018-06-28T08:15:46.458Z,22.02
2018-06-28T08:16:46.503Z,22.02
2018-06-28T08:17:46.434Z,22.20
2018-06-28T08:18:46.419Z,22.31
2018-06-28T08:19:46.505Z,22.45
2018-06-28T08:20:46.391Z,22.67
2018-06-28T08:21:46.393Z,22.60
2018-06-28T08:22:46.372Z,22.60
2018-06-28T08:23:46.373Z,22.61
2018-06-28T08:24:46.415Z,22.62
2018-06-28T08:25:46.381Z,22.77
2018-06-28T08:26:46.333Z,22.85
2018-06-28T08:27:46.322Z,22.82
2018-06-28T08:28:46.311Z,22.86
2018-06-28T08:29:46.358Z,22.92
2018-06-28T08:30:46.286Z,22.97
2018-06-28T08:31:46.270Z,23.04
2018-06-28T08:32:46.277Z,23.04
2018-06-28T08:33:46.249Z,23.10
2018-06-28T08:34:46.304Z,23.02
2018-06-28T08:35:46.295Z,23.09
2018-06-28T08:36:46.216Z,23.02
2018-06-28T08:37:46.208Z,23.15
2018-06-28T08:38:46.209Z,23.04
2018-06-28T08:39:46.254Z,23.15
2018-06-28T08:40:46.176Z,23.16
2018-06-28T08:41:46.170Z,23.27
2018-06-28T08:42:46.153Z,23.40
2018-06-28T08:43:46.143Z,23.43
2018-06-28T08:44:46.205Z,23.46
2018-06-28T08:45:46.122Z,23.50
2018-06-28T08:46:46.110Z,23.57
2018-06-28T08:47:46.100Z,23.63
2018-06-28T08:48:46.085Z,23.69
2018-06-28T08:49:46.136Z,23.73
2018-06-28T08:50:46.070Z,23.75
2018-06-28T08:51:46.068Z,23.76
2018-06-28T08:52:46.081Z,23.72
2018-06-28T08:53:46.035Z,23.70
2018-06-28T08:54:46.086Z,23.88
2018-06-28T08:55:46.020Z,23.83
2018-06-28T08:56:46.010Z,23.73
2018-06-28T08:57:46.049Z,23.83
2018-06-28T08:58:45.988Z,23.87
2018-06-28T08:59:46.028Z,23.88
2018-06-28T09:00:45.960Z,23.94
2018-06-28T09:01:45.950Z,23.79
2018-06-28T09:02:45.945Z,23.78
2018-06-28T09:03:45.932Z,23.76
2018-06-28T09:04:45.980Z,23.98
2018-06-28T09:05:45.918Z,24.05
2018-06-28T09:06:45.900Z,24.15
2018-06-28T09:07:45.891Z,24.13
2018-06-28T09:08:45.873Z,24.20
2018-06-28T09:09:45.928Z,24.20
2018-06-28T09:10:45.871Z,24.10
2018-06-28T09:11:45.853Z,24.27
2018-06-28T09:12:45.836Z,24.35
2018-06-28T09:13:45.819Z,24.49
2018-06-28T09:14:45.877Z,24.57
2018-06-28T09:15:45.799Z,24.64
2018-06-28T09:16:45.792Z,24.65
2018-06-28T09:17:45.785Z,24.67
2018-06-28T09:18:45.806Z,24.62
2018-06-28T09:19:45.824Z,24.71
2018-06-28T09:20:45.745Z,24.76
2018-06-28T09:21:45.898Z,24.76
2018-06-28T09:22:45.802Z,24.83
2018-06-28T09:23:45.708Z,24.87
2018-06-28T09:24:45.790Z,24.81
2018-06-28T09:25:45.695Z,24.80
2018-06-28T09:26:45.687Z,24.77
2018-06-28T09:27:45.665Z,24.83
2018-06-28T09:28:45.664Z,24.81
2018-06-28T09:29:45.715Z,24.67
2018-06-28T09:30:45.637Z,24.73
2018-06-28T09:31:45.627Z,24.69
2018-06-28T09:32:45.615Z,24.80
2018-06-28T09:33:45.598Z,24.81
2018-06-28T09:34:45.670Z,24.84
2018-06-28T09:35:45.597Z,24.84
2018-06-28T09:36:45.576Z,24.87
2018-06-28T09:37:45.567Z,24.91
2018-06-28T09:38:45.551Z,24.96
2018-06-28T09:39:45.542Z,25.08
2018-06-28T09:40:45.596Z,24.91
2018-06-28T09:41:45.516Z,25.03
2018-06-28T09:42:45.507Z,25.23
2018-06-28T09:43:45.495Z,25.32
2018-06-28T09:44:45.484Z,25.32
2018-06-28T09:45:45.538Z,25.58
2018-06-28T09:46:45.467Z,25.72
2018-06-28T09:47:45.454Z,25.85
2018-06-28T09:48:45.502Z,25.94
2018-06-28T09:49:45.434Z,26.05
2018-06-28T09:50:45.473Z,25.97
2018-06-28T09:51:45.407Z,25.98
2018-06-28T09:52:45.405Z,26.06
2018-06-28T09:53:45.389Z,26.13
2018-06-28T09:54:45.419Z,26.07
2018-06-28T09:55:45.433Z,26.12
2018-06-28T09:56:45.360Z,25.97
2018-06-28T09:57:45.354Z,25.83
2018-06-28T09:58:45.336Z,25.87
2018-06-28T09:59:45.335Z,25.64
2018-06-28T10:00:45.385Z,25.47
2018-06-28T10:01:45.301Z,25.39
2018-06-28T10:02:45.301Z,25.47
2018-06-28T10:03:45.282Z,25.67
2018-06-28T10:04:45.273Z,25.67
2018-06-28T10:05:45.319Z,25.87
2018-06-28T10:06:45.253Z,25.76
2018-06-28T10:07:45.242Z,25.79
2018-06-28T10:08:45.242Z,25.76
2018-06-28T10:09:45.219Z,25.69
2018-06-28T10:10:45.275Z,25.76
2018-06-28T10:11:45.211Z,25.90
2018-06-28T10:12:45.201Z,26.02
2018-06-28T10:13:45.180Z,25.99
2018-06-28T10:14:45.235Z,26.15
2018-06-28T10:15:45.257Z,26.29
2018-06-28T10:16:45.152Z,26.47
2018-06-28T10:17:45.145Z,26.60
2018-06-28T10:18:45.129Z,26.50
2018-06-28T10:19:45.162Z,26.35
2018-06-28T10:20:45.500Z,26.48
2018-06-28T10:21:45.108Z,26.51
2018-06-28T10:22:45.095Z,26.47
2018-06-28T10:23:45.086Z,26.50
2018-06-28T10:24:45.060Z,26.58
2018-06-28T10:25:45.110Z,26.63
2018-06-28T10:26:45.036Z,26.73
2018-06-28T10:27:45.036Z,26.75
2018-06-28T10:28:45.019Z,26.63
2018-06-28T10:29:45.021Z,26.48
2018-06-28T10:30:45.087Z,26.60
2018-06-28T10:31:44.999Z,26.47
2018-06-28T10:32:44.989Z,26.60
2018-06-28T10:33:44.969Z,26.82
2018-06-28T10:34:44.974Z,26.97
2018-06-28T10:35:45.023Z,27.18
2018-06-28T10:36:45.069Z,27.22
2018-06-28T10:37:44.935Z,27.22
2018-06-28T10:38:44.937Z,27.22
2018-06-28T10:39:44.902Z,27.40
2018-06-28T10:40:44.966Z,27.40
2018-06-28T10:41:44.883Z,27.22
2018-06-28T10:42:44.877Z,27.40
2018-06-28T10:43:44.894Z,27.44
2018-06-28T10:44:44.903Z,27.40
2018-06-28T10:45:44.919Z,27.34
2018-06-28T10:46:44.833Z,27.12
2018-06-28T10:47:44.811Z,27.19
2018-06-28T10:48:44.811Z,27.29
2018-06-28T10:49:44.791Z,27.43
2018-06-28T10:50:44.970Z,27.60
2018-06-28T10:51:44.773Z,27.62
2018-06-28T10:52:44.778Z,27.43
2018-06-28T10:53:44.764Z,27.14
2018-06-28T10:54:44.758Z,27.10
2018-06-28T10:55:44.796Z,27.12
2018-06-28T10:56:44.717Z,26.97
2018-06-28T10:57:44.713Z,26.95
2018-06-28T10:58:44.700Z,26.85
2018-06-28T10:59:44.692Z,26.84
2018-06-28T11:00:44.737Z,26.80
2018-06-28T11:01:44.714Z,27.04
2018-06-28T11:02:44.665Z,27.22
2018-06-28T11:03:44.648Z,27.21
2018-06-28T11:04:44.635Z,27.19
2018-06-28T11:05:44.687Z,27.03
2018-06-28T11:06:44.624Z,27.10
2018-06-28T11:07:44.646Z,27.10
2018-06-28T11:08:44.591Z,27.12
2018-06-28T11:09:44.579Z,27.29
2018-06-28T11:10:44.666Z,27.39
2018-06-28T11:11:44.559Z,27.36
2018-06-28T11:12:44.546Z,27.40
2018-06-28T11:13:44.565Z,27.59
2018-06-28T11:14:44.530Z,27.37
2018-06-28T11:15:44.645Z,27.34
2018-06-28T11:16:44.507Z,27.43
2018-06-28T11:17:44.500Z,27.36
2018-06-28T11:18:44.550Z,27.41
2018-06-28T11:19:44.498Z,27.36
2018-06-28T11:20:44.464Z,27.39
2018-06-28T11:21:44.514Z,27.41
2018-06-28T11:22:44.444Z,27.51
2018-06-28T11:23:44.562Z,27.59
2018-06-28T11:24:44.426Z,27.67
2018-06-28T11:25:44.462Z,27.74
2018-06-28T11:26:44.494Z,27.43
2018-06-28T11:27:44.393Z,27.34
2018-06-28T11:28:44.383Z,27.29
2018-06-28T11:29:44.370Z,27.34
2018-06-28T11:30:44.360Z,27.25
2018-06-28T11:31:44.418Z,27.21
2018-06-28T11:32:44.336Z,27.27
2018-06-28T11:33:44.329Z,27.47
2018-06-28T11:34:44.368Z,27.57
2018-06-28T11:35:44.300Z,27.62
2018-06-28T11:36:44.363Z,27.65
2018-06-28T11:37:44.274Z,27.78
2018-06-28T11:38:44.274Z,27.93
2018-06-28T11:39:44.254Z,28.11
2018-06-28T11:40:44.281Z,28.17
2018-06-28T11:41:44.298Z,28.30
2018-06-28T11:42:44.227Z,28.51
2018-06-28T11:43:44.273Z,28.15
2018-06-28T11:44:44.215Z,28.21
2018-06-28T11:45:44.191Z,28.31
2018-06-28T11:46:44.283Z,28.24
2018-06-28T11:47:44.166Z,27.79
2018-06-28T11:48:44.158Z,27.36
2018-06-28T11:49:44.146Z,27.37
2018-06-28T11:50:44.137Z,27.10
2018-06-28T11:51:44.210Z,27.06
2018-06-28T11:52:44.119Z,26.84
2018-06-28T11:53:44.102Z,26.72
2018-06-28T11:54:44.095Z,26.77
2018-06-28T11:55:44.092Z,26.80
2018-06-28T11:56:44.145Z,27.02
2018-06-28T11:57:44.068Z,27.34
2018-06-28T11:58:44.054Z,27.65
2018-06-28T11:59:44.043Z,27.79
2018-06-28T12:00:44.027Z,28.09
2018-06-28T12:01:44.073Z,28.37
2018-06-28T12:02:44.005Z,28.46
2018-06-28T12:03:44.002Z,28.55
2018-06-28T12:04:43.991Z,28.61
2018-06-28T12:05:43.989Z,28.66
2018-06-28T12:06:44.020Z,28.77
2018-06-28T12:07:43.953Z,29.08
2018-06-28T12:08:43.939Z,28.85
2018-06-28T12:09:43.933Z,29.09
2018-06-28T12:10:43.925Z,29.21
2018-06-28T12:11:43.984Z,29.24
2018-06-28T12:12:43.921Z,29.05
2018-06-28T12:13:43.898Z,28.93
2018-06-28T12:14:43.882Z,28.90
2018-06-28T12:15:43.929Z,28.76
2018-06-28T12:16:44.345Z,28.77
2018-06-28T12:17:43.851Z,28.78
2018-06-28T12:18:43.858Z,28.62
2018-06-28T12:19:43.831Z,28.56
2018-06-28T12:20:43.868Z,28.49
2018-06-28T12:21:43.885Z,28.36
2018-06-28T12:22:43.792Z,28.39
2018-06-28T12:23:43.785Z,28.39
2018-06-28T12:24:43.778Z,28.21
2018-06-28T12:25:43.767Z,28.00
2018-06-28T12:26:43.823Z,27.96
2018-06-28T12:27:43.745Z,28.12
2018-06-28T12:28:43.726Z,28.12
2018-06-28T12:29:43.718Z,28.30
2018-06-28T12:30:43.711Z,28.39
2018-06-28T12:31:43.763Z,28.51
2018-06-28T12:32:43.683Z,28.67
2018-06-28T12:33:43.682Z,28.71
2018-06-28T12:34:43.672Z,28.80
2018-06-28T12:35:43.660Z,28.81
2018-06-28T12:36:43.697Z,28.88
2018-06-28T12:37:43.630Z,28.95
2018-06-28T12:38:43.673Z,29.02
2018-06-28T12:39:43.709Z,29.27
2018-06-28T12:40:43.597Z,29.31
2018-06-28T12:41:43.810Z,29.27
2018-06-28T12:42:43.647Z,29.14
2018-06-28T12:43:43.620Z,29.23
2018-06-28T12:44:43.580Z,29.26
2018-06-28T12:45:43.546Z,29.53
2018-06-28T12:46:43.591Z,29.76
2018-06-28T12:47:43.532Z,29.68
2018-06-28T12:48:43.528Z,29.57
2018-06-28T12:49:43.520Z,29.52
2018-06-28T12:50:43.501Z,29.39
2018-06-28T12:51:43.561Z,29.28